Avon, Connecticut
Current Conditions -  °F | °C
As of 10:53 AM on Monday 22 Dec 2014 (Local Time) from KHFD Reporting Station
Overcast Overcast  
Wind Chill: 33°   Ceiling: 1400
Heat Index: 38°   Visibility: 10mi
Dew Point: 32°   Wind: 6mph
Humidity: 79%   Direction: NA
Pressure: 30.36"   Gusts: NA
Location:  41.81°N, 72.83°W
Report Text: KHFD 221553Z VRB05KT 10SM BKN014 OVC048 03/00 A3036 RMK AO2 SLP279 T00330000
Loading
Personal Weather Stations






























Interactive Weather Map New forecast layout! Learn more

10-Day Weather Forecast

Advertisements
Track Severe Weather on mobile